Time;durP1;ratioP1;P1;durP2;ratioP2;P2;SDS_P1;SDS_P2;PMS_P1;PMS_P2;Temp;Humidity;BMP_temperature;BMP_pressure;BME280_temperature;BME280_humidity;BME280_pressure;Samples;Min_cycle;Max_cycle;Signal;HPM_P1;HPM_P2
2022/10/04 00:00:44;;;;;;;3.77;1.13;;;;;;;13.76;100.00;101632.84;2071935;28;20228;-60
2022/10/04 00:01:48;;;;;;;2.83;1.33;;;;;;;13.75;100.00;101636.84;2071723;28;20198;-60
2022/10/04 00:02:48;;;;;;;3.50;1.30;;;;;;;13.34;100.00;101572.47;2071458;28;20437;-60
2022/10/04 00:04:01;;;;;;;3.60;1.00;;;;;;;13.71;100.00;101627.78;2071663;28;20444;-60
2022/10/04 00:05:14;;;;;;;2.57;1.20;;;;;;;13.73;100.00;101633.69;2072016;28;20240;-60
2022/10/04 00:06:19;;;;;;;2.83;0.90;;;;;;;13.46;100.00;101577.38;2071560;28;20451;-60
2022/10/04 00:07:27;;;;;;;4.27;1.10;;;;;;;13.53;100.00;101601.50;2071530;28;20583;-60
2022/10/04 00:08:40;;;;;;;3.80;1.30;;;;;;;13.75;100.00;101631.28;2071683;28;20458;-60
2022/10/04 00:09:52;;;;;;;1.97;1.00;;;;;;;13.73;100.00;101630.91;2071045;28;20444;-60
2022/10/04 00:11:06;;;;;;;2.63;1.20;;;;;;;13.71;100.00;101635.34;2072048;28;20443;-60
2022/10/04 00:12:36;;;;;;;2.57;1.13;;;;;;;13.67;100.00;101638.19;2071601;28;20443;-60
2022/10/04 00:13:38;;;;;;;2.30;1.20;;;;;;;13.67;100.00;101629.84;2070599;28;20450;-60
2022/10/04 00:14:38;;;;;;;2.77;0.90;;;;;;;13.65;100.00;101635.06;2072403;28;20434;-60
2022/10/04 00:15:39;;;;;;;2.70;1.00;;;;;;;13.66;100.00;101624.69;2070974;28;20499;-60
2022/10/04 00:16:42;;;;;;;5.57;1.13;;;;;;;13.61;100.00;101633.56;2071637;28;20200;-60
2022/10/04 00:17:43;;;;;;;5.90;1.40;;;;;;;13.64;100.00;101625.16;2071463;28;20300;-60
2022/10/04 00:18:44;;;;;;;2.57;1.10;;;;;;;13.33;100.00;101581.22;2071772;28;20447;-60
2022/10/04 00:19:47;;;;;;;2.37;1.27;;;;;;;13.60;100.00;101621.66;2070619;28;20366;-60
2022/10/04 00:20:52;;;;;;;2.40;0.90;;;;;;;13.61;100.00;101623.22;2071529;28;20514;-60
2022/10/04 00:21:52;;;;;;;2.97;1.07;;;;;;;13.64;100.00;101629.94;2071306;28;20511;-60
2022/10/04 00:23:23;;;;;;;3.97;1.27;;;;;;;13.65;100.00;101628.69;2071617;28;20482;-60
2022/10/04 00:24:26;;;;;;;2.77;1.20;;;;;;;13.63;100.00;101634.69;2071592;28;20200;-60
2022/10/04 00:25:34;;;;;;;2.20;1.10;;;;;;;13.64;100.00;101630.72;2071131;28;20466;-60
2022/10/04 00:26:34;;;;;;;2.67;1.10;;;;;;;13.65;100.00;101637.06;2071404;28;20444;-60
2022/10/04 00:27:37;;;;;;;3.97;1.27;;;;;;;13.63;100.00;101634.69;2071282;28;20432;-60
2022/10/04 00:28:38;;;;;;;3.00;1.00;;;;;;;13.66;100.00;101639.41;2071544;28;20186;-60
2022/10/04 00:29:43;;;;;;;2.37;1.13;;;;;;;13.67;100.00;101642.97;2071540;28;20425;-60
2022/10/04 00:30:43;;;;;;;1.90;1.10;;;;;;;13.68;100.00;101639.00;2071283;28;20427;-60
2022/10/04 00:32:24;;;;;;;2.23;1.20;;;;;;;13.70;100.00;101644.91;2071636;28;20528;-60
2022/10/04 00:33:57;;;;;;;3.17;1.10;;;;;;;13.69;100.00;101641.34;2062297;28;20260;-60
2022/10/04 00:34:58;;;;;;;3.80;1.17;;;;;;;13.71;100.00;101644.50;2060996;28;20515;-60
2022/10/04 00:35:59;;;;;;;2.47;1.00;;;;;;;13.72;100.00;101639.69;2070787;28;20447;-60
2022/10/04 00:36:59;;;;;;;2.03;1.13;;;;;;;13.71;100.00;101640.91;2071318;28;20475;-60
2022/10/04 00:38:12;;;;;;;3.27;1.00;;;;;;;13.71;100.00;101633.34;2071464;28;20629;-60
2022/10/04 00:39:24;;;;;;;2.43;1.20;;;;;;;13.75;100.00;101638.84;2071694;28;20609;-60
2022/10/04 00:40:34;;;;;;;3.03;1.37;;;;;;;13.72;100.00;101634.13;2070336;28;20976;-60
2022/10/04 00:41:41;;;;;;;2.57;1.23;;;;;;;13.72;100.00;101632.13;2071189;28;20984;-60
2022/10/04 00:42:41;;;;;;;3.30;1.33;;;;;;;13.73;100.00;101635.72;2071669;28;20453;-61
2022/10/04 00:43:46;;;;;;;3.70;1.37;;;;;;;13.74;100.00;101629.69;2071127;28;20439;-60
2022/10/04 00:44:56;;;;;;;2.37;1.20;;;;;;;13.76;100.00;101634.84;2072002;28;20646;-60
2022/10/04 00:46:29;;;;;;;2.93;1.20;;;;;;;13.77;100.00;101637.19;2070969;28;20420;-60
2022/10/04 00:47:54;;;;;;;5.67;1.10;;;;;;;13.77;100.00;101633.63;2070547;28;20451;-61
2022/10/04 00:49:01;;;;;;;2.67;1.10;;;;;;;13.54;100.00;101608.66;2068247;28;20461;-60
2022/10/04 00:50:10;;;;;;;3.13;1.27;;;;;;;13.66;100.00;101638.63;2070606;28;20448;-60
2022/10/04 00:51:20;;;;;;;3.17;1.40;;;;;;;13.71;100.00;101635.34;2071133;28;20537;-60
2022/10/04 00:52:35;;;;;;;2.53;1.00;;;;;;;13.71;100.00;101643.69;2071351;28;20492;-60
2022/10/04 00:53:44;;;;;;;3.27;1.20;;;;;;;13.71;100.00;101641.72;2070517;28;20958;-60
2022/10/04 00:54:53;;;;;;;6.20;1.70;;;;;;;13.68;100.00;101636.97;2071375;28;20466;-60
2022/10/04 00:55:58;;;;;;;3.60;1.27;;;;;;;13.69;100.00;101635.00;2069985;28;20452;-60
2022/10/04 00:57:10;;;;;;;2.47;1.27;;;;;;;13.66;100.00;101631.06;2071646;28;20431;-60
2022/10/04 00:58:37;;;;;;;3.10;1.40;;;;;;;13.66;100.00;101633.84;2071804;28;20453;-60
2022/10/04 00:59:52;;;;;;;4.83;1.33;;;;;;;13.65;100.00;101620.34;2069551;28;20903;-60
2022/10/04 01:00:56;;;;;;;2.30;1.30;;;;;;;13.61;100.00;101626.00;2071412;28;20447;-60
2022/10/04 01:02:16;;;;;;;3.13;1.40;;;;;;;13.63;100.00;101620.00;2070233;28;20498;-60
2022/10/04 01:03:26;;;;;;;2.60;1.40;;;;;;;13.59;100.00;101625.66;2070480;28;20494;-60
2022/10/04 01:04:32;;;;;;;2.93;1.23;;;;;;;13.56;100.00;101625.69;2070729;28;20904;-60
2022/10/04 01:05:37;;;;;;;3.53;1.40;;;;;;;13.51;100.00;101623.41;2070776;28;20476;-60
2022/10/04 01:06:39;;;;;;;4.33;1.40;;;;;;;13.45;100.00;101622.34;2071250;28;20490;-60
2022/10/04 01:07:49;;;;;;;4.07;1.27;;;;;;;13.27;100.00;101605.97;2071417;28;20446;-60
2022/10/04 01:08:53;;;;;;;4.50;1.20;;;;;;;13.40;100.00;101623.63;2071254;28;20509;-60
2022/10/04 01:10:03;;;;;;;3.10;1.17;;;;;;;13.45;100.00;101630.69;2070560;28;21756;-60
2022/10/04 01:11:13;;;;;;;2.60;1.37;;;;;;;13.34;100.00;101610.63;2071250;28;20808;-60
2022/10/04 01:12:41;;;;;;;3.13;1.40;;;;;;;13.44;100.00;101623.56;2071221;28;20431;-60
2022/10/04 01:13:49;;;;;;;5.23;1.40;;;;;;;13.45;100.00;101625.94;2066689;28;20459;-60
2022/10/04 01:15:03;;;;;;;1.80;1.03;;;;;;;13.45;100.00;101625.94;2071424;28;20534;-60
2022/10/04 01:16:21;;;;;;;3.43;1.30;;;;;;;13.44;100.00;101631.91;2070694;28;20512;-60
2022/10/04 01:17:21;;;;;;;3.47;1.20;;;;;;;13.41;100.00;101621.63;2070553;28;20448;-60
2022/10/04 01:18:30;;;;;;;1.97;1.20;;;;;;;13.08;100.00;101576.16;2071355;28;20949;-61
2022/10/04 01:19:31;;;;;;;1.63;1.23;;;;;;;13.37;100.00;101613.34;2070648;28;20643;-60
2022/10/04 01:20:35;;;;;;;5.03;1.57;;;;;;;13.38;100.00;101625.28;2071237;28;21051;-60
2022/10/04 01:21:37;;;;;;;2.40;1.10;;;;;;;13.13;100.00;101586.78;2070957;28;20914;-61
2022/10/04 01:22:47;;;;;;;3.77;1.30;;;;;;;13.36;100.00;101627.69;2071338;28;20518;-60
2022/10/04 01:23:56;;;;;;;2.87;1.13;;;;;;;13.30;100.00;101627.41;2071119;28;20416;-60
2022/10/04 01:24:57;;;;;;;3.13;1.40;;;;;;;13.29;100.00;101633.41;2071119;28;20573;-60
2022/10/04 01:25:58;;;;;;;2.07;1.20;;;;;;;13.27;100.00;101627.50;2070821;28;20430;-60
2022/10/04 01:26:59;;;;;;;6.53;1.50;;;;;;;13.20;100.00;101631.19;2070947;28;20188;-60
2022/10/04 01:28:00;;;;;;;2.23;1.37;;;;;;;13.13;100.00;101622.97;2071718;28;20733;-60
2022/10/04 01:29:06;;;;;;;4.93;1.20;;;;;;;13.17;100.00;101625.69;2071345;28;20972;-60
2022/10/04 01:30:14;;;;;;;4.70;1.60;;;;;;;13.12;100.00;101620.59;2070617;28;20222;-60
2022/10/04 01:31:15;;;;;;;3.07;1.33;;;;;;;13.02;100.00;101608.44;2071296;28;20454;-60
2022/10/04 01:32:16;;;;;;;4.60;1.43;;;;;;;13.07;100.00;101621.88;2071183;28;20467;-60
2022/10/04 01:33:17;;;;;;;3.00;1.27;;;;;;;13.13;100.00;101627.75;2071263;28;20492;-60
2022/10/04 01:34:21;;;;;;;2.53;1.33;;;;;;;13.07;100.00;101629.44;2071468;28;20201;-61
2022/10/04 01:35:21;;;;;;;2.07;1.30;;;;;;;13.07;100.00;101629.44;2070852;28;20827;-59
2022/10/04 01:36:22;;;;;;;2.10;1.20;;;;;;;13.02;100.00;101627.91;2070914;28;20431;-61
2022/10/04 01:37:23;;;;;;;5.23;1.40;;;;;;;13.02;100.00;101630.69;2070933;28;20575;-60
2022/10/04 01:38:23;;;;;;;2.63;1.30;;;;;;;12.97;100.00;101625.63;2071744;28;20296;-60
2022/10/04 01:39:26;;;;;;;3.97;1.40;;;;;;;12.98;100.00;101637.56;2071039;28;20631;-60
2022/10/04 01:40:30;;;;;;;2.73;1.30;;;;;;;12.96;100.00;101639.97;2070759;28;20201;-60
2022/10/04 01:41:40;;;;;;;4.77;1.63;;;;;;;12.97;100.00;101628.41;2070145;28;20954;-60
2022/10/04 01:42:46;;;;;;;4.50;1.60;;;;;;;12.97;100.00;101633.97;2071290;28;20452;-60
2022/10/04 01:43:52;;;;;;;3.77;1.30;;;;;;;12.99;100.00;101622.41;2070912;28;20952;-60
2022/10/04 01:45:09;;;;;;;2.80;1.40;;;;;;;12.98;100.00;101621.66;2071105;28;20454;-60
2022/10/04 01:46:14;;;;;;;2.90;1.30;;;;;;;12.82;100.00;101612.38;2070298;28;20455;-60
2022/10/04 01:47:23;;;;;;;5.57;1.43;;;;;;;12.97;100.00;101617.28;2070765;28;21100;-60
2022/10/04 01:48:30;;;;;;;2.93;1.40;;;;;;;12.82;100.00;101596.44;2071165;28;20916;-60
2022/10/04 01:49:34;;;;;;;2.30;1.37;;;;;;;12.84;100.00;101615.50;2071017;28;20509;-60
2022/10/04 01:51:03;;;;;;;4.17;1.40;;;;;;;12.89;100.00;101618.59;2071304;28;20891;-60
2022/10/04 01:52:14;;;;;;;3.13;1.30;;;;;;;12.84;100.00;101621.88;2069511;28;20458;-60
2022/10/04 01:53:27;;;;;;;2.53;1.27;;;;;;;12.79;100.00;101619.56;2071363;28;20516;-60
2022/10/04 01:54:39;;;;;;;2.87;1.43;;;;;;;12.79;100.00;101621.56;2071016;28;20452;-60
2022/10/04 01:55:44;;;;;;;4.17;1.53;;;;;;;12.78;100.00;101623.56;2070499;28;20530;-60
2022/10/04 01:57:16;;;;;;;3.73;1.60;;;;;;;12.79;100.00;101621.56;2071181;28;20469;-60
2022/10/04 01:58:30;;;;;;;3.67;1.27;;;;;;;12.75;100.00;101624.41;2070647;28;20943;-60
2022/10/04 01:59:39;;;;;;;3.60;1.30;;;;;;;12.77;100.00;101623.97;2070432;28;20747;-60
2022/10/04 02:00:56;;;;;;;4.90;1.53;;;;;;;12.74;100.00;101619.25;2071011;28;20933;-60
2022/10/04 02:02:06;;;;;;;3.80;1.37;;;;;;;12.74;100.00;101622.84;2070751;28;20439;-60
2022/10/04 02:03:16;;;;;;;3.13;1.40;;;;;;;12.76;100.00;101622.41;2071216;28;20470;-60
2022/10/04 02:04:26;;;;;;;4.30;1.40;;;;;;;12.61;100.00;101605.16;2071196;28;20948;-60
2022/10/04 02:05:37;;;;;;;3.57;1.20;;;;;;;12.59;100.00;101598.44;2070579;28;20436;-60
2022/10/04 02:06:41;;;;;;;3.93;1.40;;;;;;;12.79;100.00;101627.91;2070770;28;20967;-60
2022/10/04 02:07:43;;;;;;;2.70;1.40;;;;;;;12.79;100.00;101629.91;2070674;28;20466;-60
2022/10/04 02:08:48;;;;;;;4.20;1.57;;;;;;;12.80;100.00;101632.25;2071141;28;21012;-60
2022/10/04 02:09:55;;;;;;;3.67;1.40;;;;;;;12.76;100.00;101631.53;2070348;28;20535;-60
2022/10/04 02:10:58;;;;;;;3.30;1.30;;;;;;;12.75;100.00;101629.97;2070990;28;20490;-60
2022/10/04 02:12:00;;;;;;;3.00;1.20;;;;;;;12.73;100.00;101637.97;2070759;28;20455;-60
2022/10/04 02:13:05;;;;;;;2.43;1.20;;;;;;;12.47;100.00;101597.06;2070853;28;20432;-60
2022/10/04 02:14:14;;;;;;;4.43;1.50;;;;;;;12.40;100.00;101582.50;2070526;28;20451;-60
2022/10/04 02:15:18;;;;;;;3.27;1.60;;;;;;;12.74;100.00;101627.59;2071444;28;20451;-60
2022/10/04 02:16:21;;;;;;;3.50;1.40;;;;;;;12.70;100.00;101621.34;2071299;28;20432;-61
2022/10/04 02:17:27;;;;;;;4.80;1.40;;;;;;;12.67;100.00;101631.31;2070778;28;20924;-60
2022/10/04 02:18:30;;;;;;;4.13;1.27;;;;;;;12.65;100.00;101630.91;2071086;28;20471;-60
2022/10/04 02:19:37;;;;;;;1.97;1.10;;;;;;;12.65;100.00;101628.13;2069881;28;21022;-60
2022/10/04 02:20:40;;;;;;;3.67;1.70;;;;;;;12.34;100.00;101581.41;2070520;28;20580;-60
2022/10/04 02:21:41;;;;;;;7.47;1.60;;;;;;;12.62;100.00;101629.00;2070706;28;20531;-60
2022/10/04 02:22:44;;;;;;;4.30;1.67;;;;;;;12.47;100.00;101596.28;2070955;28;20997;-60
2022/10/04 02:23:46;;;;;;;3.83;1.50;;;;;;;12.65;100.00;101630.16;2070949;28;20991;-60
2022/10/04 02:24:48;;;;;;;3.93;1.33;;;;;;;12.66;100.00;101629.72;2071024;28;20464;-60
2022/10/04 02:25:49;;;;;;;4.20;1.70;;;;;;;12.64;100.00;101634.13;2070426;28;20798;-60
2022/10/04 02:26:51;;;;;;;2.63;1.50;;;;;;;12.57;100.00;101626.69;2071207;28;20430;-61
2022/10/04 02:27:55;;;;;;;3.90;1.70;;;;;;;12.59;100.00;101637.38;2071238;28;20217;-60
2022/10/04 02:28:55;;;;;;;2.90;1.67;;;;;;;12.54;100.00;101643.41;2071011;28;20947;-60
2022/10/04 02:30:01;;;;;;;3.90;1.30;;;;;;;12.58;100.00;101627.47;2070240;28;20859;-60
2022/10/04 02:33:42;;;;;;;4.20;1.50;;;;;;;12.26;100.00;101586.28;2071224;28;20953;-60
2022/10/04 02:34:45;;;;;;;2.77;1.60;;;;;;;12.59;100.00;101638.19;2070881;28;20452;-60
2022/10/04 02:35:47;;;;;;;2.43;1.30;;;;;;;12.58;100.00;101639.38;2070226;28;20459;-60
2022/10/04 02:36:49;;;;;;;4.17;1.50;;;;;;;12.37;100.00;101609.16;2070658;28;20989;-60
2022/10/04 02:37:57;;;;;;;3.77;1.50;;;;;;;12.31;100.00;101598.91;2070962;28;20451;-60
2022/10/04 02:39:20;;;;;;;3.27;1.57;;;;;;;12.57;100.00;101639.81;2070982;28;20449;-60
2022/10/04 02:40:26;;;;;;;2.87;1.50;;;;;;;12.52;100.00;101648.63;2070528;28;20456;-60
2022/10/04 02:41:45;;;;;;;4.37;1.63;;;;;;;12.59;100.00;101646.53;2070268;28;20987;-60
2022/10/04 02:42:59;;;;;;;4.23;1.40;;;;;;;12.54;100.00;101652.56;2070401;28;20475;-61
2022/10/04 02:44:08;;;;;;;4.83;1.33;;;;;;;12.54;100.00;101649.78;2071321;28;20967;-60
2022/10/04 02:45:35;;;;;;;2.50;1.40;;;;;;;12.59;100.00;101652.09;2070701;28;20439;-60
2022/10/04 02:46:43;;;;;;;2.00;1.23;;;;;;;12.36;100.00;101606.78;2069723;28;20428;-61
2022/10/04 02:47:50;;;;;;;3.47;1.40;;;;;;;12.65;100.00;101657.97;2070464;28;20485;-60
2022/10/04 02:48:58;;;;;;;2.60;1.50;;;;;;;12.67;100.00;101644.41;2070820;28;20838;-60
2022/10/04 02:50:16;;;;;;;3.00;1.40;;;;;;;12.66;100.00;101654.75;2070308;28;20423;-60
2022/10/04 02:51:24;;;;;;;3.73;1.70;;;;;;;12.66;100.00;101653.97;2070034;28;20515;-59
2022/10/04 02:53:09;;;;;;;5.63;1.83;;;;;;;12.62;100.00;101647.66;2070305;28;20428;-60
2022/10/04 02:54:27;;;;;;;5.33;1.57;;;;;;;12.57;100.00;101662.84;2061359;28;20860;-60
2022/10/04 02:55:30;;;;;;;2.60;1.57;;;;;;;12.62;100.00;101661.56;2070430;28;20530;-61
2022/10/04 02:56:32;;;;;;;4.93;1.40;;;;;;;12.65;100.00;101664.28;2070274;28;20450;-60
2022/10/04 02:57:33;;;;;;;2.57;1.40;;;;;;;12.66;100.00;101653.97;2070534;28;21009;-60
2022/10/04 02:58:38;;;;;;;4.00;1.40;;;;;;;12.35;100.00;101625.44;2072005;28;20823;-60
2022/10/04 02:59:39;;;;;;;3.13;1.40;;;;;;;12.59;100.00;101667.97;2071200;28;20487;-60
2022/10/04 03:01:06;;;;;;;4.97;1.53;;;;;;;12.57;100.00;101662.84;2072505;28;20515;-60
2022/10/04 03:02:39;;;;;;;3.13;1.63;;;;;;;12.64;100.00;101659.94;2071212;28;20217;-60
2022/10/04 03:03:45;;;;;;;4.20;1.53;;;;;;;12.58;100.00;101664.41;2055342;28;20579;-60
2022/10/04 03:04:48;;;;;;;3.47;1.40;;;;;;;12.47;100.00;101657.44;2068690;28;21011;-61
2022/10/04 03:06:12;;;;;;;3.87;1.73;;;;;;;12.47;100.00;101666.56;2071898;28;20451;-60
2022/10/04 03:07:12;;;;;;;7.47;1.90;;;;;;;12.56;100.00;101671.59;2072048;28;20897;-61
2022/10/04 03:08:13;;;;;;;5.30;1.83;;;;;;;12.61;100.00;101671.91;2072815;28;20795;-60
2022/10/04 03:09:15;;;;;;;4.73;1.50;;;;;;;12.51;100.00;101655.41;2072384;28;20256;-60
2022/10/04 03:10:16;;;;;;;3.17;1.50;;;;;;;12.62;100.00;101678.25;2071757;28;20265;-60
2022/10/04 03:11:21;;;;;;;3.47;1.70;;;;;;;12.61;100.00;101685.03;2071959;28;20456;-60
2022/10/04 03:12:22;;;;;;;2.73;1.50;;;;;;;12.60;100.00;101683.47;2072172;28;20223;-60
2022/10/04 03:13:22;;;;;;;4.13;1.50;;;;;;;12.54;100.00;101677.59;2072141;28;20459;-60
2022/10/04 03:14:26;;;;;;;2.87;1.50;;;;;;;12.62;100.00;101689.38;2072155;28;20208;-60
2022/10/04 03:15:27;;;;;;;3.43;1.40;;;;;;;12.28;100.00;101639.47;2071641;28;20222;-61
2022/10/04 03:16:34;;;;;;;2.93;1.67;;;;;;;12.50;100.00;101676.06;2071811;28;20433;-60
2022/10/04 03:17:35;;;;;;;5.50;1.43;;;;;;;12.41;100.00;101662.66;2071740;28;20572;-61
2022/10/04 03:18:36;;;;;;;6.67;1.60;;;;;;;12.67;100.00;101697.25;2072796;28;20437;-61
2022/10/04 03:19:37;;;;;;;2.70;1.53;;;;;;;12.62;100.00;101692.97;2071661;28;20212;-61
2022/10/04 03:20:39;;;;;;;5.53;1.70;;;;;;;12.65;100.00;101702.47;2072378;28;20459;-61
2022/10/04 03:21:43;;;;;;;3.73;1.80;;;;;;;12.67;100.00;101700.84;2072180;28;20755;-60
2022/10/04 03:22:45;;;;;;;4.00;1.70;;;;;;;12.69;100.00;101701.19;2071159;28;21040;-60
2022/10/04 03:23:47;;;;;;;2.13;1.60;;;;;;;12.69;100.00;101703.16;2072085;28;20740;-60
2022/10/04 03:24:53;;;;;;;3.57;1.73;;;;;;;12.72;100.00;101699.56;2071997;28;20490;-60
2022/10/04 03:26:03;;;;;;;3.87;1.60;;;;;;;12.72;100.00;101705.13;2071550;28;20448;-60
2022/10/04 03:27:06;;;;;;;2.67;1.43;;;;;;;12.71;100.00;101709.88;2071893;28;20446;-60
2022/10/04 03:28:07;;;;;;;4.23;1.63;;;;;;;12.73;100.00;101709.47;2072177;28;20429;-61
2022/10/04 03:29:11;;;;;;;4.73;1.70;;;;;;;12.71;100.00;101714.69;2072040;28;20432;-61
2022/10/04 03:30:13;;;;;;;2.53;1.50;;;;;;;12.70;100.00;101715.91;2071891;28;20192;-61
2022/10/04 03:31:14;;;;;;;3.50;1.73;;;;;;;12.72;100.00;101719.81;2072717;28;20430;-61
2022/10/04 03:32:17;;;;;;;5.63;1.60;;;;;;;12.74;100.00;101714.63;2071834;28;20447;-61
2022/10/04 03:33:21;;;;;;;6.07;1.63;;;;;;;12.75;100.00;101712.63;2072133;28;20454;-61
2022/10/04 03:34:30;;;;;;;4.93;1.70;;;;;;;12.74;100.00;101719.38;2072159;28;20517;-60
2022/10/04 03:35:35;;;;;;;8.43;1.60;;;;;;;12.75;100.00;101718.97;2071540;28;20535;-60
2022/10/04 03:36:35;;;;;;;4.20;1.67;;;;;;;12.71;100.00;101715.44;2071665;28;20464;-60
2022/10/04 03:37:37;;;;;;;6.50;1.60;;;;;;;12.74;100.00;101713.81;2071911;28;20501;-60
2022/10/04 03:38:39;;;;;;;4.67;1.60;;;;;;;12.77;100.00;101713.78;2072243;28;20197;-60
2022/10/04 03:39:46;;;;;;;3.93;1.50;;;;;;;12.77;100.00;101724.13;2071296;28;21013;-60
2022/10/04 03:40:52;;;;;;;2.23;1.40;;;;;;;12.73;100.00;101715.03;2071810;28;20443;-60
2022/10/04 03:41:52;;;;;;;4.53;2.00;;;;;;;12.66;100.00;101707.56;2071771;28;20435;-60
2022/10/04 03:42:53;;;;;;;3.13;1.80;;;;;;;12.69;100.00;101723.44;2072003;28;20420;-61
2022/10/04 03:43:55;;;;;;;3.03;1.67;;;;;;;12.65;100.00;101719.16;2072421;28;20185;-60
2022/10/04 03:45:01;;;;;;;4.63;1.70;;;;;;;12.62;100.00;101715.22;2072011;28;20560;-61
2022/10/04 03:46:04;;;;;;;4.93;1.60;;;;;;;12.64;100.00;101723.13;2071761;28;20456;-60
2022/10/04 03:47:16;;;;;;;2.53;1.67;;;;;;;12.64;100.00;101725.91;2071636;28;20571;-60
2022/10/04 03:48:40;;;;;;;4.00;1.73;;;;;;;12.63;100.00;101722.34;2071802;28;20923;-61
2022/10/04 03:49:43;;;;;;;3.70;1.80;;;;;;;12.66;100.00;101732.59;2071172;28;20440;-60
2022/10/04 03:50:48;;;;;;;2.43;1.67;;;;;;;12.38;100.00;101683.00;2072622;28;20992;-60
2022/10/04 03:51:50;;;;;;;2.63;1.47;;;;;;;12.66;100.00;101724.25;2072153;28;20443;-61
2022/10/04 03:52:54;;;;;;;5.50;1.80;;;;;;;12.66;100.00;101723.50;2071913;28;20455;-60
2022/10/04 03:53:57;;;;;;;4.33;2.03;;;;;;;12.65;100.00;101725.47;2070937;28;20460;-60
2022/10/04 03:55:02;;;;;;;6.23;1.90;;;;;;;12.63;100.00;101718.75;2071452;28;20535;-60
2022/10/04 03:56:12;;;;;;;3.13;1.67;;;;;;;12.61;100.00;101712.84;2071307;28;20467;-60
2022/10/04 03:57:12;;;;;;;3.07;1.63;;;;;;;12.63;100.00;101722.34;2071576;28;20552;-61
2022/10/04 03:58:16;;;;;;;4.70;1.90;;;;;;;12.57;100.00;101718.47;2072179;28;20441;-60
2022/10/04 03:59:17;;;;;;;3.33;1.53;;;;;;;12.59;100.00;101723.59;2071655;28;20243;-60
2022/10/04 04:00:18;;;;;;;4.07;1.80;;;;;;;12.21;100.00;101666.56;2071398;28;20428;-61
2022/10/04 04:01:49;;;;;;;6.73;2.17;;;;;;;12.61;100.00;101727.53;2071951;28;21052;-60
2022/10/04 04:02:59;;;;;;;4.00;1.77;;;;;;;12.55;100.00;101720.09;2072082;28;21033;-61
2022/10/04 04:04:38;;;;;;;4.80;1.97;;;;;;;12.57;100.00;101720.44;2071870;28;20446;-60
2022/10/04 04:05:53;;;;;;;3.23;1.50;;;;;;;12.55;100.00;101720.09;2071646;28;20459;-60
2022/10/04 04:07:09;;;;;;;3.67;1.60;;;;;;;12.59;100.00;101718.03;2071425;28;20412;-61
2022/10/04 04:08:22;;;;;;;3.70;1.80;;;;;;;12.41;100.00;101684.91;2070699;28;20793;-60
2022/10/04 04:09:35;;;;;;;3.90;1.67;;;;;;;12.59;100.00;101707.69;2069944;28;20931;-60
2022/10/04 04:10:43;;;;;;;2.87;1.50;;;;;;;12.61;100.00;101713.63;2070172;28;20922;-60
2022/10/04 04:11:47;;;;;;;2.67;1.70;;;;;;;12.58;100.00;101705.31;2071290;28;20918;-60
2022/10/04 04:13:16;;;;;;;2.77;1.50;;;;;;;12.64;100.00;101718.34;2071744;28;20989;-60
2022/10/04 04:14:37;;;;;;;3.23;1.50;;;;;;;12.65;100.00;101713.59;2070879;28;20624;-60
2022/10/04 04:15:42;;;;;;;3.47;1.70;;;;;;;12.61;100.00;101716.41;2071007;28;20448;-61
2022/10/04 04:16:42;;;;;;;3.87;1.53;;;;;;;12.62;100.00;101712.44;2071225;28;20983;-60
2022/10/04 04:17:45;;;;;;;3.17;1.50;;;;;;;12.66;100.00;101709.59;2071568;28;20437;-60
2022/10/04 04:18:48;;;;;;;2.03;1.30;;;;;;;12.71;100.00;101715.44;2071458;28;20204;-60
2022/10/04 04:19:48;;;;;;;4.37;1.70;;;;;;;12.64;100.00;101715.56;2070176;28;20907;-60
2022/10/04 04:20:53;;;;;;;4.13;2.00;;;;;;;12.52;100.00;101705.03;2071372;28;20490;-60
2022/10/04 04:21:54;;;;;;;3.27;1.53;;;;;;;12.43;100.00;101688.06;2071259;28;20233;-60
2022/10/04 04:23:03;;;;;;;4.40;1.60;;;;;;;12.55;100.00;101712.50;2069542;28;20539;-60
2022/10/04 04:24:12;;;;;;;2.63;1.50;;;;;;;12.59;100.00;101715.25;2070913;28;20417;-60
2022/10/04 04:25:16;;;;;;;4.33;1.83;;;;;;;12.39;100.00;101680.97;2071468;28;20416;-60
2022/10/04 04:26:16;;;;;;;3.00;1.57;;;;;;;12.60;100.00;101706.47;2069615;28;20503;-60
2022/10/04 04:27:18;;;;;;;4.57;1.80;;;;;;;12.61;100.00;101710.06;2070011;28;20460;-60
2022/10/04 04:28:26;;;;;;;5.20;1.50;;;;;;;12.68;100.00;101712.72;2070489;28;20284;-60
2022/10/04 04:29:41;;;;;;;3.70;1.33;;;;;;;12.68;100.00;101709.94;2070325;28;20446;-60
2022/10/04 04:30:50;;;;;;;2.70;1.40;;;;;;;12.37;100.00;101664.75;2070369;28;20451;-60
2022/10/04 04:31:57;;;;;;;2.83;1.63;;;;;;;12.66;100.00;101712.38;2070754;28;20754;-60
2022/10/04 04:33:05;;;;;;;4.03;1.90;;;;;;;12.66;100.00;101712.38;2071034;28;20452;-60
2022/10/04 04:34:18;;;;;;;5.40;1.90;;;;;;;12.61;100.00;101712.84;2069994;28;20518;-60
2022/10/04 04:35:21;;;;;;;3.33;1.80;;;;;;;12.59;100.00;101729.13;2069001;28;20454;-59
2022/10/04 04:36:21;;;;;;;3.20;1.73;;;;;;;12.59;100.00;101726.34;2069970;28;20479;-60
2022/10/04 04:37:22;;;;;;;3.93;1.80;;;;;;;12.54;100.00;101721.28;2070404;28;20931;-59
2022/10/04 04:38:24;;;;;;;3.63;1.70;;;;;;;12.60;100.00;101734.28;2069673;28;20197;-60
2022/10/04 04:39:43;;;;;;;3.57;1.87;;;;;;;12.63;100.00;101736.25;2067789;28;20363;-60
2022/10/04 04:40:45;;;;;;;6.90;2.03;;;;;;;12.64;100.00;101746.16;2057021;28;20973;-60
2022/10/04 04:41:45;;;;;;;6.27;2.57;;;;;;;12.66;100.00;101740.19;2065131;28;20771;-60
2022/10/04 04:42:48;;;;;;;7.43;2.70;;;;;;;12.70;100.00;101743.72;2066926;28;20929;-59
2022/10/04 04:43:49;;;;;;;5.70;2.47;;;;;;;12.71;100.00;101750.84;2068408;28;20319;-61
2022/10/04 04:44:51;;;;;;;6.20;2.23;;;;;;;12.74;100.00;101741.63;2063861;28;20499;-59
2022/10/04 04:45:53;;;;;;;5.93;2.20;;;;;;;12.52;100.00;101707.00;2066507;28;20206;-60
2022/10/04 04:46:55;;;;;;;3.07;1.90;;;;;;;12.75;100.00;101748.78;2067248;28;20577;-60
2022/10/04 04:47:57;;;;;;;7.20;2.20;;;;;;;12.47;100.00;101711.06;2066805;28;20565;-59
2022/10/04 04:49:02;;;;;;;3.10;1.60;;;;;;;12.73;100.00;101743.66;2065897;28;20448;-60
2022/10/04 04:50:19;;;;;;;5.47;2.50;;;;;;;12.77;100.00;101741.59;2054328;28;20520;-60
2022/10/04 04:51:23;;;;;;;2.93;1.90;;;;;;;12.79;100.00;101741.97;2062379;28;20466;-60
2022/10/04 04:52:27;;;;;;;2.67;1.70;;;;;;;12.37;100.00;101684.19;2068034;28;20513;-60
2022/10/04 04:53:29;;;;;;;4.53;1.70;;;;;;;12.80;100.00;101746.31;2069501;28;20920;-59
2022/10/04 04:54:33;;;;;;;5.17;2.00;;;;;;;12.47;100.00;101705.50;2067610;28;20468;-59
2022/10/04 04:55:43;;;;;;;3.80;1.90;;;;;;;12.84;100.00;101751.81;2068212;28;20547;-59
2022/10/04 04:56:48;;;;;;;4.80;2.50;;;;;;;12.83;100.00;101750.25;2068014;28;20890;-60
2022/10/04 04:57:50;;;;;;;4.40;1.80;;;;;;;12.90;100.00;101762.06;2068248;28;20471;-60
2022/10/04 04:58:55;;;;;;;4.97;2.47;;;;;;;12.95;100.00;101760.78;2067090;28;20432;-60
2022/10/04 04:59:59;;;;;;;5.50;2.10;;;;;;;12.99;100.00;101765.13;2067760;28;20578;-60
2022/10/04 05:01:27;;;;;;;3.83;2.20;;;;;;;13.03;100.00;101762.28;2067594;28;20980;-60
2022/10/04 05:02:33;;;;;;;5.63;1.53;;;;;;;13.03;100.00;101757.53;2056743;28;20463;-61
2022/10/04 05:03:34;;;;;;;4.47;1.73;;;;;;;12.98;100.00;101758.00;2064486;28;20531;-60
2022/10/04 05:04:35;;;;;;;4.07;1.50;;;;;;;12.64;100.00;101689.75;2069465;28;20433;-61
2022/10/04 05:05:36;;;;;;;2.27;1.30;;;;;;;12.64;100.00;101700.88;2064444;28;20278;-60
2022/10/04 05:06:44;;;;;;;4.00;1.83;;;;;;;13.05;100.00;101760.66;2065873;28;20577;-61
2022/10/04 05:07:45;;;;;;;3.57;1.57;;;;;;;13.07;100.00;101758.22;2067689;28;20564;-60
2022/10/04 05:08:49;;;;;;;4.67;1.37;;;;;;;13.05;100.00;101765.44;2067883;28;20946;-60
2022/10/04 05:09:49;;;;;;;3.67;1.60;;;;;;;13.09;100.00;101763.38;2066187;28;20805;-60
2022/10/04 05:11:14;;;;;;;3.00;1.50;;;;;;;13.10;100.00;101762.16;2069278;28;20477;-61
2022/10/04 05:12:20;;;;;;;5.17;2.00;;;;;;;12.97;100.00;101742.50;2068523;28;20205;-61